createdAt,value
2019-01-24T00:02:15.839Z,31.60
2019-01-24T00:07:21.053Z,29.47
2019-01-24T00:12:26.648Z,31.97
2019-01-24T00:17:32.234Z,30.23
2019-01-24T00:22:37.812Z,28.43
2019-01-24T00:27:43.004Z,33.00
2019-01-24T00:32:48.519Z,31.77
2019-01-24T00:37:54.146Z,33.00
2019-01-24T00:42:59.401Z,31.77
2019-01-24T00:48:04.890Z,31.30
2019-01-24T00:53:10.089Z,29.80
2019-01-24T00:58:15.932Z,30.77
2019-01-24T01:03:21.127Z,30.83
2019-01-24T01:08:26.850Z,31.33
2019-01-24T01:13:33.017Z,30.77
2019-01-24T01:18:39.011Z,30.77
2019-01-24T01:23:45.552Z,30.13
2019-01-24T01:28:50.736Z,29.70
2019-01-24T01:33:55.927Z,30.73
2019-01-24T01:39:01.496Z,31.10
2019-01-24T01:44:07.059Z,29.97
2019-01-24T01:49:12.248Z,28.37
2019-01-24T01:54:17.448Z,28.27
2019-01-24T01:59:22.980Z,29.00
2019-01-24T02:04:28.285Z,28.93
2019-01-24T02:09:33.778Z,28.73
2019-01-24T02:14:39.000Z,29.30
2019-01-24T02:19:44.222Z,27.70
2019-01-24T02:24:49.430Z,28.37
2019-01-24T02:29:54.633Z,27.37
2019-01-24T02:34:59.824Z,27.63
2019-01-24T02:40:06.368Z,28.10
2019-01-24T02:45:13.962Z,28.53
2019-01-24T02:50:20.769Z,27.50
2019-01-24T02:55:25.959Z,29.03
2019-01-24T03:00:31.215Z,28.57
2019-01-24T03:05:36.704Z,27.97
2019-01-24T03:10:42.036Z,26.60
2019-01-24T03:15:47.703Z,28.67
2019-01-24T03:20:52.908Z,28.10
2019-01-24T03:25:59.189Z,26.87
2019-01-24T03:31:05.033Z,27.50
2019-01-24T03:36:10.261Z,27.33
2019-01-24T03:41:15.451Z,27.30
2019-01-24T03:46:20.643Z,27.77
2019-01-24T03:51:25.837Z,29.27
2019-01-24T03:56:31.031Z,29.73
2019-01-24T04:01:36.223Z,27.90
2019-01-24T04:06:41.431Z,28.50
2019-01-24T04:11:46.741Z,28.20
2019-01-24T04:16:52.309Z,28.17
2019-01-24T04:21:57.512Z,29.57
2019-01-24T04:27:03.158Z,29.50
2019-01-24T04:32:08.352Z,29.53
2019-01-24T04:37:13.536Z,27.93
2019-01-24T04:42:19.736Z,43.73
2019-01-24T04:47:25.340Z,32.07
2019-01-24T04:52:30.900Z,30.70
2019-01-24T04:57:36.253Z,30.80
2019-01-24T05:02:41.466Z,28.87
2019-01-24T05:07:46.664Z,28.90
2019-01-24T05:12:52.993Z,30.47
2019-01-24T05:17:58.593Z,28.83
2019-01-24T05:23:03.800Z,29.97
2019-01-24T05:28:09.005Z,28.87
2019-01-24T05:33:15.041Z,26.53
2019-01-24T05:38:20.235Z,28.17
2019-01-24T05:43:25.727Z,27.70
2019-01-24T05:48:32.723Z,28.90
2019-01-24T05:53:37.925Z,28.37
2019-01-24T05:58:43.528Z,27.37
2019-01-24T06:03:49.042Z,29.23
2019-01-24T06:08:55.034Z,29.17
2019-01-24T06:14:00.255Z,28.43
2019-01-24T06:19:05.681Z,30.40
2019-01-24T06:24:11.244Z,30.40
2019-01-24T06:29:16.569Z,27.90
2019-01-24T06:34:21.775Z,26.67
2019-01-24T06:39:27.071Z,28.97
2019-01-24T06:44:32.213Z,26.73
2019-01-24T06:49:38.562Z,27.67
2019-01-24T06:54:44.041Z,28.73
2019-01-24T06:59:49.318Z,29.17
2019-01-24T07:04:54.536Z,28.83
2019-01-24T07:10:00.152Z,28.33
2019-01-24T07:15:07.072Z,30.17
2019-01-24T07:20:12.831Z,29.53
2019-01-24T07:25:23.657Z,28.30
2019-01-24T07:30:29.260Z,29.93
2019-01-24T07:35:34.468Z,29.90
2019-01-24T07:40:39.943Z,30.77
2019-01-24T07:45:45.152Z,30.17
2019-01-24T07:50:50.454Z,29.10
2019-01-24T07:55:55.687Z,27.00
2019-01-24T08:01:00.884Z,27.43
2019-01-24T08:06:09.256Z,28.20
2019-01-24T08:11:13.556Z,30.10
2019-01-24T08:16:19.156Z,29.57
2019-01-24T08:21:24.555Z,29.17
2019-01-24T08:26:29.756Z,29.60
2019-01-24T08:31:34.998Z,28.90
2019-01-24T08:36:40.320Z,27.17
2019-01-24T08:41:47.618Z,28.40
2019-01-24T08:46:52.819Z,28.80
2019-01-24T08:51:58.584Z,28.77
2019-01-24T08:57:03.777Z,26.70
2019-01-24T09:02:09.092Z,27.30
2019-01-24T09:07:14.302Z,28.77
2019-01-24T09:12:19.540Z,29.77
2019-01-24T09:17:24.954Z,42.95
2019-01-24T09:22:30.524Z,31.13
2019-01-24T09:27:36.052Z,29.23
2019-01-24T09:32:41.388Z,29.30
2019-01-24T09:37:46.588Z,29.30
2019-01-24T09:42:51.808Z,28.93
2019-01-24T09:47:59.467Z,30.40
2019-01-24T09:53:04.678Z,29.47
2019-01-24T09:58:09.952Z,30.20
2019-01-24T10:03:15.943Z,29.80
2019-01-24T10:08:21.504Z,29.50
2019-01-24T10:13:26.708Z,29.33
2019-01-24T10:18:32.141Z,27.03
2019-01-24T10:23:37.715Z,30.23
2019-01-24T10:28:43.023Z,29.70
2019-01-24T10:33:48.688Z,27.90
2019-01-24T10:38:53.885Z,29.23
2019-01-24T10:43:59.449Z,28.13
2019-01-24T10:49:04.754Z,28.17
2019-01-24T10:54:09.959Z,28.40
2019-01-24T10:59:15.425Z,29.00
2019-01-24T11:04:20.719Z,27.97
2019-01-24T11:09:26.348Z,28.70
2019-01-24T11:14:31.571Z,28.27
2019-01-24T11:19:36.814Z,27.47
2019-01-24T11:24:42.033Z,27.97
2019-01-24T11:29:47.678Z,28.03
2019-01-24T11:34:52.910Z,26.33
2019-01-24T11:39:58.123Z,26.77
2019-01-24T11:45:03.324Z,27.20
2019-01-24T11:50:13.062Z,27.40
2019-01-24T11:55:19.667Z,29.27
2019-01-24T12:00:39.556Z,29.33
2019-01-24T12:05:44.759Z,27.73
2019-01-24T12:10:49.970Z,29.30
2019-01-24T12:15:55.202Z,28.63
2019-01-24T12:21:00.395Z,27.40
2019-01-24T12:26:06.080Z,27.80
2019-01-24T12:31:11.365Z,29.43
2019-01-24T12:36:17.253Z,29.40
2019-01-24T12:41:22.488Z,27.50
2019-01-24T12:46:27.987Z,27.87
2019-01-24T12:51:33.194Z,26.97
2019-01-24T12:56:38.523Z,28.47
2019-01-24T13:01:44.038Z,29.00
2019-01-24T13:06:49.240Z,27.63
2019-01-24T13:11:54.442Z,28.33
2019-01-24T13:17:00.079Z,26.23
2019-01-24T13:22:05.779Z,26.03
2019-01-24T13:27:11.357Z,27.10
2019-01-24T13:32:16.579Z,27.00
2019-01-24T13:37:25.792Z,27.00
2019-01-24T13:42:28.687Z,27.33
2019-01-24T13:47:34.267Z,29.03
2019-01-24T13:52:39.470Z,27.80
2019-01-24T13:57:44.782Z,27.67
2019-01-24T14:02:52.247Z,29.37
2019-01-24T14:07:57.500Z,28.20
2019-01-24T14:13:02.737Z,29.43
2019-01-24T14:18:08.086Z,26.83
2019-01-24T14:23:13.288Z,27.33
2019-01-24T14:28:18.513Z,26.47
2019-01-24T14:33:23.868Z,27.70
2019-01-24T14:38:29.139Z,27.60
2019-01-24T14:43:34.776Z,27.00
2019-01-24T14:48:40.108Z,25.60
2019-01-24T14:53:45.305Z,26.63
2019-01-24T14:58:50.508Z,25.70
2019-01-24T15:03:55.832Z,25.63
2019-01-24T15:09:01.068Z,26.17
2019-01-24T15:14:06.576Z,25.03
2019-01-24T15:19:12.511Z,26.40
2019-01-24T15:24:17.861Z,27.27
2019-01-24T15:29:23.478Z,27.10
2019-01-24T15:34:28.691Z,24.47
2019-01-24T15:39:34.204Z,25.60
2019-01-24T15:44:39.875Z,25.27
2019-01-24T15:49:45.079Z,25.57
2019-01-24T15:54:50.640Z,26.97
2019-01-24T15:59:55.897Z,25.03
2019-01-24T16:05:01.746Z,26.00
2019-01-24T16:10:10.419Z,26.10
2019-01-24T16:15:18.547Z,27.03
2019-01-24T16:20:24.818Z,25.63
2019-01-24T16:25:31.596Z,26.00
2019-01-24T16:30:37.563Z,25.60
2019-01-24T16:35:42.911Z,26.07
2019-01-24T16:40:49.068Z,24.23
2019-01-24T16:45:54.663Z,24.17
2019-01-24T16:51:01.225Z,24.83
2019-01-24T16:56:06.651Z,25.83
2019-01-24T17:01:22.236Z,24.63
2019-01-24T17:06:27.443Z,25.43
2019-01-24T17:11:33.055Z,24.53
2019-01-24T17:16:39.428Z,23.50
2019-01-24T17:21:44.639Z,24.07
2019-01-24T17:26:50.211Z,23.47
2019-01-24T17:31:55.888Z,23.77
2019-01-24T17:37:01.324Z,22.57
2019-01-24T17:42:06.850Z,23.70
2019-01-24T17:47:12.043Z,23.53
2019-01-24T17:52:17.455Z,22.77
2019-01-24T17:57:23.117Z,25.23
2019-01-24T18:02:29.184Z,22.90
2019-01-24T18:07:34.454Z,24.30
2019-01-24T18:12:39.910Z,24.73
2019-01-24T18:17:46.475Z,24.70
2019-01-24T18:22:52.082Z,25.37
2019-01-24T18:27:57.272Z,26.63
2019-01-24T18:33:02.477Z,24.57
2019-01-24T18:38:08.642Z,24.00
2019-01-24T18:43:20.655Z,24.43
2019-01-24T18:48:25.902Z,24.00
2019-01-24T18:53:31.451Z,24.53
2019-01-24T18:58:38.235Z,26.30
2019-01-24T19:03:44.594Z,24.80
2019-01-24T19:08:49.871Z,23.30
2019-01-24T19:13:55.084Z,27.73
2019-01-24T19:19:00.310Z,25.03
2019-01-24T19:24:05.626Z,24.57
2019-01-24T19:29:10.833Z,24.57
2019-01-24T19:34:16.051Z,23.60
2019-01-24T19:39:21.408Z,25.27
2019-01-24T19:44:27.693Z,24.33
2019-01-24T19:49:33.110Z,25.83
2019-01-24T19:54:38.313Z,24.97
2019-01-24T19:59:43.519Z,24.10
2019-01-24T20:04:48.735Z,24.87
2019-01-24T20:09:53.939Z,25.43
2019-01-24T20:14:59.343Z,26.40
2019-01-24T20:20:06.435Z,26.10
2019-01-24T20:25:14.044Z,25.90
2019-01-24T20:30:24.219Z,25.70
2019-01-24T20:35:41.169Z,24.53
2019-01-24T20:40:46.666Z,25.27
2019-01-24T20:45:51.867Z,24.97
2019-01-24T20:50:57.358Z,25.70
2019-01-24T20:56:03.663Z,25.13
2019-01-24T21:01:10.011Z,26.07
2019-01-24T21:06:16.251Z,24.30
2019-01-24T21:11:21.819Z,25.60
2019-01-24T21:16:27.042Z,23.80
2019-01-24T21:21:32.244Z,24.73
2019-01-24T21:26:37.891Z,23.43
2019-01-24T21:31:43.409Z,23.97
2019-01-24T21:36:48.612Z,23.40
2019-01-24T21:41:53.814Z,23.17
2019-01-24T21:46:59.485Z,23.90
2019-01-24T21:52:04.903Z,23.63
2019-01-24T21:57:10.104Z,25.80
2019-01-24T22:02:15.708Z,23.53
2019-01-24T22:07:21.392Z,23.27
2019-01-24T22:12:26.915Z,23.63
2019-01-24T22:17:32.847Z,24.40
2019-01-24T22:22:38.776Z,24.07
2019-01-24T22:27:44.620Z,24.40
2019-01-24T22:32:50.314Z,23.60
2019-01-24T22:37:55.691Z,24.37
2019-01-24T22:43:00.898Z,24.23
2019-01-24T22:48:07.461Z,24.03
2019-01-24T22:53:13.049Z,25.07
2019-01-24T22:58:18.537Z,24.70
2019-01-24T23:03:33.150Z,24.23
2019-01-24T23:08:39.250Z,24.73
2019-01-24T23:13:44.536Z,25.43
2019-01-24T23:18:50.411Z,26.03
2019-01-24T23:23:55.948Z,25.40
2019-01-24T23:29:01.643Z,25.53
2019-01-24T23:34:07.407Z,25.63
2019-01-24T23:39:12.608Z,25.63
2019-01-24T23:44:17.803Z,24.07
2019-01-24T23:49:23.771Z,25.40
2019-01-24T23:54:29.331Z,25.93
2019-01-24T23:59:34.662Z,26.27
